»·PEaware :: N1JG KMYF-KSMO

N1JG :: KMYF-KSMO

FLIGHT INFORMATION

Flight Status: Arrived
Operator: Privately registered:
United States
More flights under this callsign
Pilot: Josh G. (4619)
Aircraft: CESSNA T210 TURBO CENTURION
(T210)
More flights by this aircraft type
Origin: KMYF Montgomery
United States
Destination: KSMO Santa Monica Mun
United States
More flights between these airports :: More routes between these airports
Route: OCN V23 DANAH V363 BAYJY V186 DARTS
File this flight plan on PilotEdge
Remarks: Student Pilot
Altitude:
(Current/Filed)
6,000ft
Speed:
(Current/Filed)
160kts
Departed: 17-Aug-19 08:30 AM
Arrived: 17-Aug-19 09:17 AM
Distance/Time
Traveled:
97nm/0:47
Distance/Time
To Go:
Arrived

Flight Plot

Page will automatically refresh every two minutes.

Flight plan parsing failed; only flown route is shown


Map Options




Map Legend


Flown Route
Filed Route
Departure Airport
Arrival Airport
Navaid (VOR, NDB)
Fix

Horizontal Profiles

Position Reports

Time Latitude Longitude Heading Altitude Ground
Speed
17-Aug-19 08:19 32.812935 -117.140668 357 405ft 0kts
17-Aug-19 08:20 32.812935 -117.140668 357 405ft 0kts
17-Aug-19 08:21 32.812935 -117.140668 357 405ft 0kts
17-Aug-19 08:22 32.812935 -117.140668 357 405ft 0kts
17-Aug-19 08:23 32.812935 -117.140668 357 405ft 0kts
17-Aug-19 08:25 32.812935 -117.140668 357 405ft 0kts
17-Aug-19 08:26 32.812937 -117.140668 356 405ft 1kts
17-Aug-19 08:27 32.813402 -117.138330 114 405ft 19kts
17-Aug-19 08:28 32.811437 -117.133550 120 405ft 20kts
17-Aug-19 08:29 32.811997 -117.131253 331 405ft 4kts
17-Aug-19 08:30 32.818475 -117.146678 286 712ft 99kts
17-Aug-19 08:31 32.824162 -117.183413 276 1884ft 117kts
17-Aug-19 08:32 32.829223 -117.221536 277 3168ft 121kts
17-Aug-19 08:33 32.835314 -117.260076 283 4403ft 116kts
17-Aug-19 08:34 32.862438 -117.280672 341 5256ft 121kts
17-Aug-19 08:35 32.895885 -117.292167 339 5989ft 131kts
17-Aug-19 08:36 32.936154 -117.306649 340 6003ft 163kts
17-Aug-19 08:37 32.980515 -117.322697 340 5999ft 167kts
17-Aug-19 08:38 33.025205 -117.338985 340 5997ft 168kts
17-Aug-19 08:39 33.070148 -117.355392 340 5990ft 168kts
17-Aug-19 08:40 33.115106 -117.371810 340 5990ft 168kts
17-Aug-19 08:41 33.160167 -117.388282 340 5990ft 168kts
17-Aug-19 08:42 33.204787 -117.404626 340 5990ft 167kts
17-Aug-19 08:43 33.247146 -117.425547 311 5994ft 164kts
17-Aug-19 08:43 33.274800 -117.457568 314 5990ft 165kts
17-Aug-19 08:45 33.313485 -117.502643 314 5990ft 165kts
17-Aug-19 08:45 33.341062 -117.534842 314 5989ft 165kts
17-Aug-19 08:46 33.376791 -117.569305 333 5990ft 168kts
17-Aug-19 08:48 33.426989 -117.594578 334 5989ft 167kts
17-Aug-19 08:48 33.462472 -117.613663 333 5990ft 167kts
17-Aug-19 08:49 33.504758 -117.636866 333 5992ft 167kts
17-Aug-19 08:50 33.546640 -117.659883 332 5997ft 167kts
17-Aug-19 08:51 33.588915 -117.683164 332 5999ft 167kts
17-Aug-19 08:53 33.638166 -117.710352 332 6000ft 166kts
17-Aug-19 08:53 33.673408 -117.729834 332 5999ft 166kts
17-Aug-19 08:54 33.716626 -117.750740 336 6000ft 167kts
17-Aug-19 08:55 33.760266 -117.770931 335 6000ft 167kts
17-Aug-19 08:56 33.806009 -117.780285 355 6001ft 170kts
17-Aug-19 08:57 33.853301 -117.782110 355 6000ft 170kts
17-Aug-19 08:58 33.900756 -117.783321 356 6000ft 170kts
17-Aug-19 08:59 33.948296 -117.784330 356 6000ft 170kts
17-Aug-19 09:00 33.995531 -117.786073 344 5996ft 168kts
17-Aug-19 09:01 34.020902 -117.828446 289 6000ft 162kts
17-Aug-19 09:02 34.036371 -117.879639 288 5998ft 161kts
17-Aug-19 09:03 34.052050 -117.930491 289 5996ft 162kts
17-Aug-19 09:04 34.067838 -117.981626 289 5993ft 160kts
17-Aug-19 09:05 34.083100 -118.031213 288 5992ft 154kts
17-Aug-19 09:06 34.097672 -118.078688 288 5993ft 147kts
17-Aug-19 09:07 34.111806 -118.124890 289 5763ft 158kts
17-Aug-19 09:08 34.127588 -118.176234 289 5048ft 163kts
17-Aug-19 09:09 34.143213 -118.227324 289 4226ft 159kts
17-Aug-19 09:10 34.151003 -118.276559 241 4025ft 156kts
17-Aug-19 09:11 34.124204 -118.317587 231 3544ft 156kts
17-Aug-19 09:12 34.095105 -118.357256 223 2621ft 160kts
17-Aug-19 09:13 34.065133 -118.392731 225 1632ft 138kts
17-Aug-19 09:14 34.041759 -118.420686 225 737ft 109kts
17-Aug-19 09:15 34.024296 -118.441277 221 280ft 72kts
17-Aug-19 09:16 34.016510 -118.449347 132 136ft 9kts

Navigation Log

Ident Type
Flight plan parsing failed, navigation log unavailable